createdAt,value
2017-06-24T00:00:32.068Z,0
2017-06-24T00:01:32.100Z,0
2017-06-24T00:02:32.146Z,0
2017-06-24T00:03:32.497Z,0
2017-06-24T00:04:32.537Z,0
2017-06-24T00:05:32.267Z,0
2017-06-24T00:06:32.363Z,0
2017-06-24T00:07:32.337Z,0
2017-06-24T00:08:32.392Z,0
2017-06-24T00:09:32.421Z,0
2017-06-24T00:10:32.466Z,0
2017-06-24T00:11:33.114Z,0
2017-06-24T00:12:33.161Z,0
2017-06-24T00:13:32.587Z,0
2017-06-24T00:14:32.624Z,0
2017-06-24T00:15:32.669Z,0
2017-06-24T00:16:32.720Z,0
2017-06-24T00:17:33.047Z,0
2017-06-24T00:18:32.789Z,0
2017-06-24T00:19:33.161Z,0
2017-06-24T00:20:33.173Z,0
2017-06-24T00:21:32.904Z,0
2017-06-24T00:22:33.266Z,0
2017-06-24T00:23:33.607Z,0
2017-06-24T00:24:33.048Z,0
2017-06-24T00:25:33.071Z,0
2017-06-24T00:26:33.112Z,0
2017-06-24T00:27:33.151Z,0
2017-06-24T00:28:33.498Z,0
2017-06-24T00:29:33.224Z,0
2017-06-24T00:30:33.272Z,0
2017-06-24T00:31:33.608Z,0
2017-06-24T00:32:33.351Z,0
2017-06-24T00:33:33.383Z,0
2017-06-24T00:34:33.435Z,0
2017-06-24T00:35:34.090Z,0
2017-06-24T00:36:33.512Z,0
2017-06-24T00:37:33.849Z,0
2017-06-24T00:38:33.583Z,0
2017-06-24T00:39:33.637Z,0
2017-06-24T00:40:33.979Z,0
2017-06-24T00:41:34.328Z,0
2017-06-24T00:42:34.053Z,0
2017-06-24T00:43:34.088Z,0
2017-06-24T00:44:34.436Z,0
2017-06-24T00:45:33.874Z,0
2017-06-24T00:46:33.906Z,0
2017-06-24T00:47:34.256Z,0
2017-06-24T00:48:34.596Z,0
2017-06-24T00:49:34.029Z,0
2017-06-24T00:50:34.685Z,0
2017-06-24T00:51:34.726Z,0
2017-06-24T00:52:34.448Z,0
2017-06-24T00:53:34.507Z,0
2017-06-24T00:54:34.527Z,0
2017-06-24T00:55:34.272Z,0
2017-06-24T00:56:34.623Z,0
2017-06-24T00:57:34.965Z,0
2017-06-24T00:58:34.387Z,0
2017-06-24T00:59:34.734Z,0
2017-06-24T01:00:34.471Z,0
2017-06-24T01:01:34.502Z,0
2017-06-24T01:02:34.850Z,0
2017-06-24T01:03:35.513Z,0
2017-06-24T01:04:34.627Z,0
2017-06-24T01:05:34.969Z,0
2017-06-24T01:06:34.711Z,0
2017-06-24T01:07:34.745Z,0
2017-06-24T01:08:34.786Z,0
2017-06-24T01:09:34.820Z,0
2017-06-24T01:10:34.869Z,0
2017-06-24T01:11:35.211Z,0
2017-06-24T01:12:34.953Z,0
2017-06-24T01:13:34.991Z,0
2017-06-24T01:14:35.336Z,0
2017-06-24T01:15:35.682Z,0
2017-06-24T01:16:36.035Z,0
2017-06-24T01:17:35.137Z,0
2017-06-24T01:18:35.188Z,0
2017-06-24T01:19:35.846Z,0
2017-06-24T01:20:35.255Z,0
2017-06-24T01:21:35.840Z,0
2017-06-24T01:22:35.342Z,0
2017-06-24T01:23:35.387Z,0
2017-06-24T01:24:36.040Z,0
2017-06-24T01:25:35.773Z,0
2017-06-24T01:26:35.497Z,0
2017-06-24T01:27:35.857Z,0
2017-06-24T01:28:35.890Z,0
2017-06-24T01:29:35.621Z,0
2017-06-24T01:30:36.316Z,0
2017-06-24T01:31:36.003Z,0
2017-06-24T01:32:36.353Z,0
2017-06-24T01:33:35.783Z,0
2017-06-24T01:34:35.824Z,0
2017-06-24T01:35:35.867Z,0
2017-06-24T01:36:35.894Z,0
2017-06-24T01:37:36.563Z,0
2017-06-24T01:38:36.598Z,0
2017-06-24T01:39:36.638Z,0
2017-06-24T01:40:36.378Z,0
2017-06-24T01:41:36.098Z,0
2017-06-24T01:42:36.138Z,0
2017-06-24T01:43:36.188Z,0
2017-06-24T01:44:36.518Z,0
2017-06-24T01:45:36.566Z,0
2017-06-24T01:46:36.297Z,0
2017-06-24T01:47:36.649Z,0
2017-06-24T01:48:36.685Z,0
2017-06-24T01:49:36.411Z,0
2017-06-24T01:50:37.078Z,0
2017-06-24T01:51:36.509Z,0
2017-06-24T01:52:36.540Z,0
2017-06-24T01:53:36.582Z,0
2017-06-24T01:54:36.614Z,0
2017-06-24T01:55:36.973Z,0
2017-06-24T01:56:37.007Z,0
2017-06-24T01:57:36.743Z,0
2017-06-24T01:58:37.081Z,0
2017-06-24T01:59:36.815Z,0
2017-06-24T02:00:37.172Z,0
2017-06-24T02:01:37.210Z,0
2017-06-24T02:02:37.245Z,0
2017-06-24T02:03:37.822Z,0
2017-06-24T02:04:37.324Z,0
2017-06-24T02:05:37.370Z,0
2017-06-24T02:06:37.095Z,0
2017-06-24T02:07:37.140Z,0
2017-06-24T02:08:37.797Z,0
2017-06-24T02:09:37.217Z,0
2017-06-24T02:10:37.577Z,0
2017-06-24T02:11:37.299Z,0
2017-06-24T02:12:37.337Z,0
2017-06-24T02:13:37.686Z,0
2017-06-24T02:14:37.720Z,0
2017-06-24T02:15:37.762Z,0
2017-06-24T02:16:37.501Z,0
2017-06-24T02:17:37.531Z,0
2017-06-24T02:18:37.592Z,0
2017-06-24T02:19:37.611Z,0
2017-06-24T02:20:37.660Z,0
2017-06-24T02:21:37.693Z,0
2017-06-24T02:22:38.044Z,0
2017-06-24T02:23:38.090Z,0
2017-06-24T02:24:38.117Z,0
2017-06-24T02:25:38.163Z,0
2017-06-24T02:26:37.896Z,0
2017-06-24T02:27:37.935Z,0
2017-06-24T02:28:37.974Z,0
2017-06-24T02:29:38.636Z,0
2017-06-24T02:30:38.355Z,0
2017-06-24T02:31:38.084Z,0
2017-06-24T02:32:38.449Z,0
2017-06-24T02:33:38.783Z,0
2017-06-24T02:34:38.217Z,0
2017-06-24T02:35:38.575Z,0
2017-06-24T02:36:38.594Z,0
2017-06-24T02:37:38.327Z,0
2017-06-24T02:38:38.367Z,0
2017-06-24T02:39:38.722Z,0
2017-06-24T02:40:38.681Z,0
2017-06-24T02:41:38.491Z,0
2017-06-24T02:42:38.840Z,0
2017-06-24T02:43:38.905Z,0
2017-06-24T02:44:38.615Z,0
2017-06-24T02:45:38.694Z,0
2017-06-24T02:46:38.691Z,0
2017-06-24T02:47:38.726Z,0
2017-06-24T02:48:39.086Z,0
2017-06-24T02:49:38.818Z,0
2017-06-24T02:50:39.471Z,5
2017-06-24T02:51:39.499Z,5
2017-06-24T02:52:39.240Z,5
2017-06-24T02:53:38.967Z,5
2017-06-24T02:54:39.617Z,5
2017-06-24T02:55:39.045Z,5
2017-06-24T02:56:39.089Z,5
2017-06-24T02:57:39.444Z,5
2017-06-24T02:58:39.168Z,5
2017-06-24T02:59:39.208Z,5
2017-06-24T03:00:39.244Z,10
2017-06-24T03:01:39.591Z,10
2017-06-24T03:02:39.323Z,10
2017-06-24T03:03:39.668Z,10
2017-06-24T03:04:39.714Z,10
2017-06-24T03:05:39.439Z,10
2017-06-24T03:06:39.797Z,10
2017-06-24T03:07:40.131Z,10
2017-06-24T03:08:39.566Z,10
2017-06-24T03:09:39.912Z,15
2017-06-24T03:10:39.954Z,15
2017-06-24T03:11:39.677Z,15
2017-06-24T03:12:39.948Z,15
2017-06-24T03:13:39.755Z,15
2017-06-24T03:14:40.418Z,15
2017-06-24T03:15:39.846Z,15
2017-06-24T03:16:40.497Z,20
2017-06-24T03:17:40.148Z,20
2017-06-24T03:18:40.273Z,20
2017-06-24T03:19:40.000Z,20
2017-06-24T03:20:40.355Z,20
2017-06-24T03:21:40.697Z,20
2017-06-24T03:22:40.121Z,20
2017-06-24T03:23:40.770Z,20
2017-06-24T03:24:41.123Z,25
2017-06-24T03:25:40.548Z,25
2017-06-24T03:26:40.584Z,30
2017-06-24T03:27:40.631Z,35
2017-06-24T03:28:40.583Z,35
2017-06-24T03:29:41.006Z,40
2017-06-24T03:30:40.479Z,40
2017-06-24T03:31:40.531Z,40
2017-06-24T03:32:41.127Z,40
2017-06-24T03:33:40.562Z,40
2017-06-24T03:34:40.600Z,40
2017-06-24T03:35:40.636Z,40
2017-06-24T03:36:40.684Z,40
2017-06-24T03:37:41.018Z,45
2017-06-24T03:38:41.066Z,45
2017-06-24T03:39:40.788Z,50
2017-06-24T03:40:40.846Z,50
2017-06-24T03:41:40.877Z,55
2017-06-24T03:42:41.226Z,55
2017-06-24T03:43:40.950Z,60
2017-06-24T03:44:41.305Z,60
2017-06-24T03:45:41.350Z,60
2017-06-24T03:46:41.078Z,65
2017-06-24T03:47:41.422Z,65
2017-06-24T03:48:41.459Z,65
2017-06-24T03:49:41.495Z,65
2017-06-24T03:50:41.235Z,70
2017-06-24T03:51:41.267Z,70
2017-06-24T03:52:41.316Z,75
2017-06-24T03:53:41.346Z,75
2017-06-24T03:54:41.404Z,80
2017-06-24T03:55:41.432Z,90
2017-06-24T03:56:42.400Z,115
2017-06-24T03:57:41.520Z,105
2017-06-24T03:58:41.856Z,125
2017-06-24T03:59:42.234Z,165
2017-06-24T04:00:41.630Z,180
2017-06-24T04:01:41.679Z,180
2017-06-24T04:02:41.716Z,135
2017-06-24T04:03:42.075Z,190
2017-06-24T04:04:42.143Z,200
2017-06-24T04:05:42.148Z,205
2017-06-24T04:06:42.186Z,210
2017-06-24T04:07:42.536Z,215
2017-06-24T04:08:42.264Z,225
2017-06-24T04:09:42.615Z,230
2017-06-24T04:10:42.651Z,220
2017-06-24T04:11:42.394Z,190
2017-06-24T04:12:42.117Z,140
2017-06-24T04:13:42.469Z,115
2017-06-24T04:14:43.140Z,110
2017-06-24T04:15:42.590Z,110
2017-06-24T04:16:42.603Z,115
2017-06-24T04:17:42.332Z,115
2017-06-24T04:18:42.377Z,120
2017-06-24T04:19:42.408Z,130
2017-06-24T04:20:42.466Z,145
2017-06-24T04:21:42.502Z,150
2017-06-24T04:22:42.543Z,150
2017-06-24T04:23:42.578Z,150
2017-06-24T04:24:42.930Z,145
2017-06-24T04:25:42.968Z,145
2017-06-24T04:26:42.701Z,140
2017-06-24T04:27:43.056Z,135
2017-06-24T04:28:43.091Z,145
2017-06-24T04:29:43.140Z,155
2017-06-24T04:30:43.170Z,170
2017-06-24T04:31:42.914Z,195
2017-06-24T04:32:42.979Z,260
2017-06-24T04:33:42.995Z,345
2017-06-24T04:34:43.336Z,340
2017-06-24T04:35:43.421Z,345
2017-06-24T04:36:43.120Z,365
2017-06-24T04:37:43.470Z,340
2017-06-24T04:38:43.206Z,345
2017-06-24T04:39:43.247Z,275
2017-06-24T04:40:43.586Z,240
2017-06-24T04:41:43.988Z,245
2017-06-24T04:42:43.981Z,285
2017-06-24T04:43:43.409Z,310
2017-06-24T04:44:43.763Z,355
2017-06-24T04:45:43.492Z,490
2017-06-24T04:46:43.537Z,490
2017-06-24T04:47:43.884Z,475
2017-06-24T04:48:43.928Z,475
2017-06-24T04:49:43.661Z,550
2017-06-24T04:50:44.018Z,540
2017-06-24T04:51:44.054Z,505
2017-06-24T04:52:44.107Z,455
2017-06-24T04:53:43.830Z,345
2017-06-24T04:54:44.497Z,340
2017-06-24T04:55:43.927Z,305
2017-06-24T04:56:43.968Z,300
2017-06-24T04:57:44.646Z,275
2017-06-24T04:58:44.365Z,265
2017-06-24T04:59:44.091Z,265
2017-06-24T05:00:44.465Z,270
2017-06-24T05:01:44.180Z,270
2017-06-24T05:02:44.232Z,310
2017-06-24T05:03:44.283Z,385
2017-06-24T05:04:44.637Z,425
2017-06-24T05:05:44.354Z,390
2017-06-24T05:06:44.742Z,415
2017-06-24T05:07:44.441Z,500
2017-06-24T05:08:44.489Z,525
2017-06-24T05:09:44.529Z,375
2017-06-24T05:10:44.886Z,405
2017-06-24T05:11:44.610Z,325
2017-06-24T05:12:45.283Z,330
2017-06-24T05:13:44.999Z,345
2017-06-24T05:14:44.750Z,340
2017-06-24T05:15:45.411Z,340
2017-06-24T05:16:44.838Z,320
2017-06-24T05:17:44.880Z,330
2017-06-24T05:18:45.227Z,310
2017-06-24T05:19:45.273Z,305
2017-06-24T05:20:45.624Z,305
2017-06-24T05:21:45.046Z,305
2017-06-24T05:22:45.701Z,315
2017-06-24T05:23:45.140Z,320
2017-06-24T05:24:45.188Z,320
2017-06-24T05:25:45.217Z,330
2017-06-24T05:26:45.563Z,335
2017-06-24T05:27:45.616Z,345
2017-06-24T05:28:45.656Z,435
2017-06-24T05:29:46.013Z,430
2017-06-24T05:30:45.440Z,350
2017-06-24T05:31:45.788Z,335
2017-06-24T05:32:45.526Z,345
2017-06-24T05:33:45.866Z,345
2017-06-24T05:34:46.214Z,350
2017-06-24T05:35:45.961Z,360
2017-06-24T05:36:45.688Z,365
2017-06-24T05:37:46.036Z,370
2017-06-24T05:38:46.403Z,390
2017-06-24T05:39:45.818Z,455
2017-06-24T05:40:45.871Z,465
2017-06-24T05:41:46.521Z,505
2017-06-24T05:42:46.578Z,695
2017-06-24T05:43:46.314Z,800
2017-06-24T05:44:46.344Z,945
2017-06-24T05:45:46.084Z,935
2017-06-24T05:46:46.137Z,980
2017-06-24T05:47:46.170Z,965
2017-06-24T05:48:46.213Z,1005
2017-06-24T05:49:46.253Z,1015
2017-06-24T05:50:46.617Z,1030
2017-06-24T05:51:46.968Z,1035
2017-06-24T05:52:46.404Z,935
2017-06-24T05:53:46.447Z,1045
2017-06-24T05:54:46.797Z,1065
2017-06-24T05:55:46.527Z,985
2017-06-24T05:56:47.208Z,985
2017-06-24T05:57:46.939Z,970
2017-06-24T05:58:47.282Z,910
2017-06-24T05:59:47.341Z,975
2017-06-24T06:00:46.769Z,1090
2017-06-24T06:01:46.821Z,1040
2017-06-24T06:02:46.870Z,1040
2017-06-24T06:03:47.217Z,1095
2017-06-24T06:04:47.576Z,1250
2017-06-24T06:05:47.624Z,1195
2017-06-24T06:06:47.402Z,1190
2017-06-24T06:07:47.103Z,1210
2017-06-24T06:08:47.164Z,1175
2017-06-24T06:09:47.223Z,1175
2017-06-24T06:10:47.263Z,1220
2017-06-24T06:11:47.305Z,1265
2017-06-24T06:12:47.360Z,1240
2017-06-24T06:13:47.722Z,1300
2017-06-24T06:14:47.467Z,1350
2017-06-24T06:15:47.514Z,1415
2017-06-24T06:16:47.561Z,1370
2017-06-24T06:17:47.613Z,1415
2017-06-24T06:18:47.665Z,1330
2017-06-24T06:19:47.715Z,1415
2017-06-24T06:20:48.082Z,1350
2017-06-24T06:21:48.129Z,1515
2017-06-24T06:22:47.871Z,1460
2017-06-24T06:23:48.226Z,1395
2017-06-24T06:24:47.964Z,1380
2017-06-24T06:25:48.029Z,1355
2017-06-24T06:26:48.078Z,1360
2017-06-24T06:27:48.439Z,1435
2017-06-24T06:28:48.477Z,1430
2017-06-24T06:29:48.229Z,1470
2017-06-24T06:30:48.593Z,1575
2017-06-24T06:31:48.341Z,1590
2017-06-24T06:32:48.381Z,1415
2017-06-24T06:33:48.443Z,1515
2017-06-24T06:34:48.800Z,1510
2017-06-24T06:35:48.555Z,1470
2017-06-24T06:36:48.910Z,1550
2017-06-24T06:37:48.646Z,1605
2017-06-24T06:38:48.705Z,1620
2017-06-24T06:39:48.784Z,1630
2017-06-24T06:40:48.990Z,1670
2017-06-24T06:41:49.170Z,1745
2017-06-24T06:42:48.922Z,1785
2017-06-24T06:43:48.976Z,1740
2017-06-24T06:44:49.328Z,1690
2017-06-24T06:45:49.086Z,1815
2017-06-24T06:46:49.131Z,1775
2017-06-24T06:47:49.192Z,1760
2017-06-24T06:48:49.251Z,1765
2017-06-24T06:49:49.919Z,1825
2017-06-24T06:50:49.356Z,1860
2017-06-24T06:51:49.718Z,1920
2017-06-24T06:52:49.766Z,1995
2017-06-24T06:53:50.133Z,1965
2017-06-24T06:54:49.888Z,1970
2017-06-24T06:55:49.936Z,1965
2017-06-24T06:56:50.003Z,1980
2017-06-24T06:57:50.353Z,1635
2017-06-24T06:58:49.789Z,1845
2017-06-24T06:59:50.467Z,1955
2017-06-24T07:00:49.896Z,2030
2017-06-24T07:01:49.964Z,1930
2017-06-24T07:02:50.018Z,1840
2017-06-24T07:03:50.376Z,1805
2017-06-24T07:04:50.441Z,1730
2017-06-24T07:05:50.184Z,1760
2017-06-24T07:06:50.238Z,1765
2017-06-24T07:07:50.602Z,1755
2017-06-24T07:08:50.352Z,1745
2017-06-24T07:09:50.427Z,1850
2017-06-24T07:10:50.778Z,1800
2017-06-24T07:11:51.129Z,1815
2017-06-24T07:12:50.569Z,1855
2017-06-24T07:13:50.627Z,2045
2017-06-24T07:14:50.676Z,2005
2017-06-24T07:15:50.730Z,2095
2017-06-24T07:16:50.817Z,2140
2017-06-24T07:17:50.852Z,2050
2017-06-24T07:18:50.898Z,2090
2017-06-24T07:19:50.964Z,2040
2017-06-24T07:20:51.010Z,1995
2017-06-24T07:21:51.378Z,2100
2017-06-24T07:22:51.435Z,2075
2017-06-24T07:23:51.189Z,2030
2017-06-24T07:24:51.246Z,2155
2017-06-24T07:25:51.599Z,2195
2017-06-24T07:26:51.659Z,2165
2017-06-24T07:27:51.405Z,2300
2017-06-24T07:28:51.783Z,2335
2017-06-24T07:29:51.537Z,2275
2017-06-24T07:30:51.587Z,2385
2017-06-24T07:31:51.949Z,2350
2017-06-24T07:32:51.695Z,2365
2017-06-24T07:33:52.991Z,2375
2017-06-24T07:34:51.815Z,2400
2017-06-24T07:35:52.184Z,2420
2017-06-24T07:36:51.923Z,2465
2017-06-24T07:37:51.982Z,2495
2017-06-24T07:38:52.050Z,2505
2017-06-24T07:39:52.109Z,2455
2017-06-24T07:40:52.468Z,2430
2017-06-24T07:41:52.214Z,2405
2017-06-24T07:42:52.277Z,2260
2017-06-24T07:43:52.656Z,2250
2017-06-24T07:44:52.394Z,2270
2017-06-24T07:45:52.447Z,2265
2017-06-24T07:46:53.125Z,2310
2017-06-24T07:47:52.880Z,2385
2017-06-24T07:48:52.935Z,2500
2017-06-24T07:49:52.681Z,2555
2017-06-24T07:50:53.381Z,2615
2017-06-24T07:51:52.803Z,2695
2017-06-24T07:52:52.863Z,2710
2017-06-24T07:53:52.942Z,2715
2017-06-24T07:54:53.320Z,2725
2017-06-24T07:55:53.038Z,2700
2017-06-24T07:56:53.100Z,2670
2017-06-24T07:57:53.146Z,2615
2017-06-24T07:58:53.551Z,2590
2017-06-24T07:59:53.270Z,2670
2017-06-24T08:00:54.257Z,2615
2017-06-24T08:01:53.383Z,2605
2017-06-24T08:02:53.445Z,2575
2017-06-24T08:03:53.810Z,2560
2017-06-24T08:04:53.564Z,2615
2017-06-24T08:05:53.928Z,2600
2017-06-24T08:06:54.302Z,2590
2017-06-24T08:07:53.743Z,2565
2017-06-24T08:08:54.107Z,2590
2017-06-24T08:09:54.166Z,2705
2017-06-24T08:10:54.232Z,2720
2017-06-24T08:11:53.971Z,2735
2017-06-24T08:12:54.343Z,2730
2017-06-24T08:13:54.711Z,2715
2017-06-24T08:14:54.456Z,2715
2017-06-24T08:15:54.518Z,2715
2017-06-24T08:16:55.190Z,2680
2017-06-24T08:17:55.255Z,2700
2017-06-24T08:18:54.385Z,2735
2017-06-24T08:19:55.053Z,2730
2017-06-24T08:20:54.507Z,2760
2017-06-24T08:21:54.877Z,2800
2017-06-24T08:22:54.932Z,2835
2017-06-24T08:23:54.688Z,2845
2017-06-24T08:24:55.358Z,2890
2017-06-24T08:25:55.110Z,2870
2017-06-24T08:26:55.169Z,2910
2017-06-24T08:27:55.523Z,2880
2017-06-24T08:28:55.002Z,2845
2017-06-24T08:29:55.342Z,2895
2017-06-24T08:30:55.087Z,2865
2017-06-24T08:31:55.467Z,2860
2017-06-24T08:32:55.526Z,2885
2017-06-24T08:33:55.267Z,2915
2017-06-24T08:34:55.352Z,2920
2017-06-24T08:35:56.318Z,3035
2017-06-24T08:36:55.439Z,3120
2017-06-24T08:37:55.843Z,3150
2017-06-24T08:38:55.880Z,3185
2017-06-24T08:39:55.625Z,3230
2017-06-24T08:40:55.989Z,3260
2017-06-24T08:41:56.039Z,3285
2017-06-24T08:42:56.419Z,3240
2017-06-24T08:43:55.865Z,3175
2017-06-24T08:44:55.916Z,3100
2017-06-24T08:45:56.286Z,3055
2017-06-24T08:46:56.342Z,3050
2017-06-24T08:47:56.715Z,3015
2017-06-24T08:48:56.456Z,2980
2017-06-24T08:49:56.215Z,2980
2017-06-24T08:50:56.274Z,2975
2017-06-24T08:51:56.952Z,3005
2017-06-24T08:52:56.705Z,3110
2017-06-24T08:53:56.753Z,3145
2017-06-24T08:54:56.505Z,3215
2017-06-24T08:55:56.573Z,3165
2017-06-24T08:56:56.652Z,3110
2017-06-24T08:57:56.991Z,3090
2017-06-24T08:58:56.746Z,2980
2017-06-24T08:59:56.807Z,2975
2017-06-24T09:00:56.866Z,2955
2017-06-24T09:01:57.233Z,2970
2017-06-24T09:02:56.981Z,2985
2017-06-24T09:03:57.030Z,3010
2017-06-24T09:04:57.742Z,3045
2017-06-24T09:05:57.159Z,3075
2017-06-24T09:06:57.825Z,3100
2017-06-24T09:07:57.592Z,3115
2017-06-24T09:08:57.326Z,3050
2017-06-24T09:09:57.402Z,3030
2017-06-24T09:10:57.449Z,3000
2017-06-24T09:11:57.508Z,3015
2017-06-24T09:12:57.562Z,2940
2017-06-24T09:13:57.933Z,2955
2017-06-24T09:14:57.999Z,2885
2017-06-24T09:15:57.747Z,2855
2017-06-24T09:16:57.804Z,2855
2017-06-24T09:17:58.169Z,2855
2017-06-24T09:18:58.246Z,2855
2017-06-24T09:19:57.973Z,2990
2017-06-24T09:20:58.654Z,3100
2017-06-24T09:21:58.395Z,3095
2017-06-24T09:22:58.373Z,3245
2017-06-24T09:23:58.520Z,3325
2017-06-24T09:24:58.573Z,3245
2017-06-24T09:25:58.326Z,3225
2017-06-24T09:26:58.391Z,3240
2017-06-24T09:27:58.755Z,3255
2017-06-24T09:28:58.824Z,3300
2017-06-24T09:29:59.181Z,2265
2017-06-24T09:30:58.617Z,1905
2017-06-24T09:31:58.674Z,3095
2017-06-24T09:32:58.739Z,3085
2017-06-24T09:33:58.804Z,3125
2017-06-24T09:34:58.863Z,3060
2017-06-24T09:35:58.913Z,3015
2017-06-24T09:36:59.281Z,2980
2017-06-24T09:37:59.034Z,2930
2017-06-24T09:38:59.118Z,2930
2017-06-24T09:39:59.145Z,2915
2017-06-24T09:40:59.209Z,2950
2017-06-24T09:41:59.588Z,2980
2017-06-24T09:42:59.321Z,2975
2017-06-24T09:43:59.683Z,3070
2017-06-24T09:44:59.445Z,3030
2017-06-24T09:45:59.496Z,2955
2017-06-24T09:46:59.559Z,2935
2017-06-24T09:48:00.226Z,2965
2017-06-24T09:48:59.988Z,2910
2017-06-24T09:50:00.353Z,2930
2017-06-24T09:51:00.107Z,2915
2017-06-24T09:51:59.852Z,2905
2017-06-24T09:53:00.224Z,2910
2017-06-24T09:53:59.963Z,2895
2017-06-24T09:55:00.029Z,2900
2017-06-24T09:56:00.403Z,2905
2017-06-24T09:57:00.458Z,2920
2017-06-24T09:58:00.514Z,2890
2017-06-24T09:59:00.576Z,2870
2017-06-24T10:00:00.320Z,2800
2017-06-24T10:01:00.386Z,2750
2017-06-24T10:02:00.755Z,2740
2017-06-24T10:03:01.123Z,2670
2017-06-24T10:04:00.866Z,2605
2017-06-24T10:05:00.615Z,2630
2017-06-24T10:06:01.621Z,2760
2017-06-24T10:07:00.800Z,940
2017-06-24T10:08:00.795Z,2800
2017-06-24T10:09:00.846Z,2795
2017-06-24T10:10:01.530Z,2965
2017-06-24T10:11:00.964Z,3010
2017-06-24T10:12:01.026Z,2975
2017-06-24T10:13:01.397Z,2940
2017-06-24T10:14:01.150Z,2995
2017-06-24T10:15:01.512Z,2955
2017-06-24T10:16:01.263Z,2900
2017-06-24T10:17:01.628Z,2830
2017-06-24T10:18:01.691Z,2725
2017-06-24T10:19:01.742Z,810
2017-06-24T10:20:02.121Z,2630
2017-06-24T10:21:01.563Z,2680
2017-06-24T10:22:01.916Z,2560
2017-06-24T10:23:02.000Z,2520
2017-06-24T10:24:01.736Z,2565
2017-06-24T10:25:02.096Z,2570
2017-06-24T10:26:01.854Z,2600
2017-06-24T10:27:02.532Z,2575
2017-06-24T10:28:01.963Z,2475
2017-06-24T10:29:02.342Z,2570
2017-06-24T10:30:02.401Z,2560
2017-06-24T10:31:02.147Z,2515
2017-06-24T10:32:02.200Z,2450
2017-06-24T10:33:02.884Z,2395
2017-06-24T10:34:02.549Z,2410
2017-06-24T10:35:02.683Z,2440
2017-06-24T10:36:02.752Z,2485
2017-06-24T10:37:02.494Z,2520
2017-06-24T10:38:02.549Z,2725
2017-06-24T10:39:02.935Z,2845
2017-06-24T10:40:02.982Z,2890
2017-06-24T10:41:02.758Z,2930
2017-06-24T10:42:02.789Z,2955
2017-06-24T10:43:03.465Z,2905
2017-06-24T10:44:03.212Z,2925
2017-06-24T10:45:03.279Z,2965
2017-06-24T10:46:03.328Z,2975
2017-06-24T10:47:03.095Z,2950
2017-06-24T10:48:03.142Z,2880
2017-06-24T10:49:03.501Z,2825
2017-06-24T10:50:03.265Z,2760
2017-06-24T10:51:03.311Z,2710
2017-06-24T10:52:03.692Z,2535
2017-06-24T10:53:03.433Z,1875
2017-06-24T10:54:03.803Z,895
2017-06-24T10:55:04.164Z,315
2017-06-24T10:56:03.908Z,295
2017-06-24T10:57:03.978Z,280
2017-06-24T10:58:04.063Z,275
2017-06-24T10:59:03.773Z,280
2017-06-24T11:00:04.145Z,275
2017-06-24T11:01:04.501Z,270
2017-06-24T11:02:03.952Z,260
2017-06-24T11:03:04.308Z,255
2017-06-24T11:04:04.064Z,245
2017-06-24T11:05:04.133Z,240
2017-06-24T11:06:04.191Z,240
2017-06-24T11:07:04.539Z,245
2017-06-24T11:08:04.280Z,250
2017-06-24T11:09:04.328Z,250
2017-06-24T11:10:04.381Z,240
2017-06-24T11:11:05.052Z,235
2017-06-24T11:12:05.105Z,250
2017-06-24T11:13:04.854Z,255
2017-06-24T11:14:05.008Z,245
2017-06-24T11:15:04.654Z,235
2017-06-24T11:16:05.014Z,225
2017-06-24T11:17:05.081Z,240
2017-06-24T11:18:05.109Z,235
2017-06-24T11:19:04.846Z,210
2017-06-24T11:20:04.899Z,205
2017-06-24T11:21:04.974Z,205
2017-06-24T11:22:05.009Z,210
2017-06-24T11:23:05.683Z,205
2017-06-24T11:24:05.408Z,205
2017-06-24T11:25:05.156Z,205
2017-06-24T11:26:05.508Z,210
2017-06-24T11:27:05.558Z,215
2017-06-24T11:28:05.610Z,225
2017-06-24T11:29:05.355Z,235
2017-06-24T11:30:05.402Z,270
2017-06-24T11:31:05.745Z,290
2017-06-24T11:32:05.501Z,265
2017-06-24T11:33:05.544Z,240
2017-06-24T11:34:06.126Z,240
2017-06-24T11:35:06.566Z,230
2017-06-24T11:36:05.697Z,220
2017-06-24T11:37:06.358Z,200
2017-06-24T11:38:06.085Z,190
2017-06-24T11:39:05.834Z,190
2017-06-24T11:40:05.879Z,185
2017-06-24T11:41:06.231Z,185
2017-06-24T11:42:06.299Z,185
2017-06-24T11:43:06.017Z,185
2017-06-24T11:44:06.416Z,185
2017-06-24T11:45:06.126Z,185
2017-06-24T11:46:06.479Z,190
2017-06-24T11:47:06.540Z,190
2017-06-24T11:48:06.258Z,180
2017-06-24T11:49:07.229Z,200
2017-06-24T11:50:06.661Z,235
2017-06-24T11:51:06.738Z,270
2017-06-24T11:52:06.760Z,260
2017-06-24T11:53:06.794Z,230
2017-06-24T11:54:06.542Z,200
2017-06-24T11:55:06.898Z,190
2017-06-24T11:56:06.631Z,180
2017-06-24T11:57:06.684Z,175
2017-06-24T11:58:06.727Z,180
2017-06-24T11:59:07.086Z,185
2017-06-24T12:00:06.828Z,200
2017-06-24T12:01:06.871Z,225
2017-06-24T12:02:07.231Z,225
2017-06-24T12:03:06.965Z,225
2017-06-24T12:04:07.618Z,215
2017-06-24T12:05:07.060Z,235
2017-06-24T12:06:07.107Z,240
2017-06-24T12:07:07.464Z,270
2017-06-24T12:08:07.196Z,260
2017-06-24T12:09:07.250Z,245
2017-06-24T12:10:07.604Z,275
2017-06-24T12:11:07.338Z,290
2017-06-24T12:12:07.384Z,255
2017-06-24T12:13:07.428Z,220
2017-06-24T12:14:07.479Z,195
2017-06-24T12:15:07.527Z,190
2017-06-24T12:16:07.896Z,175
2017-06-24T12:17:07.926Z,170
2017-06-24T12:18:07.668Z,170
2017-06-24T12:19:08.333Z,175
2017-06-24T12:20:07.754Z,180
2017-06-24T12:21:08.123Z,170
2017-06-24T12:22:07.847Z,160
2017-06-24T12:23:08.513Z,170
2017-06-24T12:24:08.617Z,180
2017-06-24T12:25:07.988Z,190
2017-06-24T12:26:08.342Z,180
2017-06-24T12:27:08.710Z,195
2017-06-24T12:28:08.130Z,195
2017-06-24T12:29:08.490Z,200
2017-06-24T12:30:08.219Z,190
2017-06-24T12:31:08.886Z,185
2017-06-24T12:32:08.641Z,180
2017-06-24T12:33:08.365Z,175
2017-06-24T12:34:08.723Z,175
2017-06-24T12:35:08.460Z,175
2017-06-24T12:36:08.806Z,170
2017-06-24T12:37:09.190Z,170
2017-06-24T12:38:08.589Z,165
2017-06-24T12:39:09.258Z,160
2017-06-24T12:40:08.696Z,165
2017-06-24T12:41:08.739Z,165
2017-06-24T12:42:08.774Z,165
2017-06-24T12:43:08.824Z,170
2017-06-24T12:44:08.873Z,155
2017-06-24T12:45:09.230Z,140
2017-06-24T12:46:09.287Z,145
2017-06-24T12:47:09.634Z,150
2017-06-24T12:48:09.363Z,160
2017-06-24T12:49:09.113Z,160
2017-06-24T12:50:09.454Z,155
2017-06-24T12:51:09.819Z,150
2017-06-24T12:52:09.547Z,155
2017-06-24T12:53:09.908Z,160
2017-06-24T12:54:09.636Z,155
2017-06-24T12:55:09.383Z,150
2017-06-24T12:56:09.424Z,140
2017-06-24T12:57:09.467Z,140
2017-06-24T12:58:09.514Z,135
2017-06-24T12:59:09.561Z,130
2017-06-24T13:00:09.619Z,130
2017-06-24T13:01:09.665Z,130
2017-06-24T13:02:09.710Z,130
2017-06-24T13:03:10.360Z,130
2017-06-24T13:04:10.094Z,135
2017-06-24T13:05:10.155Z,130
2017-06-24T13:06:10.207Z,130
2017-06-24T13:07:10.241Z,130
2017-06-24T13:08:09.981Z,130
2017-06-24T13:09:10.043Z,130
2017-06-24T13:10:10.074Z,125
2017-06-24T13:11:10.440Z,125
2017-06-24T13:12:10.163Z,125
2017-06-24T13:13:10.519Z,125
2017-06-24T13:14:10.254Z,130
2017-06-24T13:15:10.301Z,130
2017-06-24T13:16:11.295Z,125
2017-06-24T13:17:11.029Z,125
2017-06-24T13:18:10.758Z,125
2017-06-24T13:19:10.502Z,130
2017-06-24T13:20:10.842Z,130
2017-06-24T13:21:10.884Z,135
2017-06-24T13:22:11.248Z,135
2017-06-24T13:23:10.985Z,130
2017-06-24T13:24:11.018Z,125
2017-06-24T13:25:10.763Z,125
2017-06-24T13:26:11.117Z,120
2017-06-24T13:27:10.848Z,120
2017-06-24T13:28:11.204Z,120
2017-06-24T13:29:11.555Z,120
2017-06-24T13:30:10.990Z,120
2017-06-24T13:31:11.337Z,120
2017-06-24T13:32:11.072Z,115
2017-06-24T13:33:11.134Z,115
2017-06-24T13:34:11.472Z,115
2017-06-24T13:35:11.222Z,120
2017-06-24T13:36:11.568Z,115
2017-06-24T13:37:11.306Z,115
2017-06-24T13:38:11.657Z,115
2017-06-24T13:39:11.398Z,115
2017-06-24T13:40:11.750Z,115
2017-06-24T13:41:11.799Z,115
2017-06-24T13:42:12.152Z,115
2017-06-24T13:43:11.588Z,115
2017-06-24T13:44:12.234Z,120
2017-06-24T13:45:11.669Z,120
2017-06-24T13:46:11.715Z,120
2017-06-24T13:47:11.763Z,120
2017-06-24T13:48:11.798Z,120
2017-06-24T13:49:11.848Z,120
2017-06-24T13:50:12.208Z,120
2017-06-24T13:51:12.556Z,120